Time;durP1;ratioP1;P1;durP2;ratioP2;P2;SDS_P1;SDS_P2;PMS_P1;PMS_P2;Temp;Humidity;BMP_temperature;BMP_pressure;BME280_temperature;BME280_humidity;BME280_pressure;Samples;Min_cycle;Max_cycle;Signal;HPM_P1;HPM_P2
2024/02/19 00:00:36;;;;;;;13.52;5.43;;;;;;;;;;5109880;28;20364;-58
2024/02/19 00:03:02;;;;;;;10.95;5.55;;;;;;;;;;5110215;28;20391;-56
2024/02/19 00:05:30;;;;;;;7.50;4.60;;;;;;;;;;5092491;28;20483;-58
2024/02/19 00:07:57;;;;;;;8.98;5.38;;;;;;;;;;5102415;28;20534;-59
2024/02/19 00:10:23;;;;;;;11.70;5.20;;;;;;;;;;5093175;28;20020;-59
2024/02/19 00:12:49;;;;;;;10.88;5.03;;;;;;;;;;5101585;28;20016;-59
2024/02/19 00:15:15;;;;;;;10.10;6.03;;;;;;;;;;5104258;28;20023;-58
2024/02/19 00:17:41;;;;;;;8.48;5.18;;;;;;;;;;5107768;28;20062;-58
2024/02/19 00:20:07;;;;;;;10.98;5.57;;;;;;;;;;5091830;28;20032;-58
2024/02/19 00:22:33;;;;;;;7.38;4.97;;;;;;;;;;5100539;28;20031;-59
2024/02/19 00:24:59;;;;;;;8.38;5.65;;;;;;;;;;5105448;28;20032;-59
2024/02/19 00:27:26;;;;;;;9.77;5.15;;;;;;;;;;5105601;28;20159;-58
2024/02/19 00:29:52;;;;;;;9.48;5.15;;;;;;;;;;5105588;28;20082;-58
2024/02/19 00:32:18;;;;;;;8.02;5.03;;;;;;;;;;5093729;28;20028;-58
2024/02/19 00:34:44;;;;;;;7.32;4.82;;;;;;;;;;5090692;28;20057;-59
2024/02/19 00:37:10;;;;;;;7.93;4.40;;;;;;;;;;5091358;28;20032;-58
2024/02/19 00:39:39;;;;;;;6.30;3.95;;;;;;;;;;5075475;28;20151;-59
2024/02/19 00:42:05;;;;;;;8.45;5.13;;;;;;;;;;5107006;28;20506;-58
2024/02/19 00:44:31;;;;;;;8.35;4.90;;;;;;;;;;5101539;28;20024;-59
2024/02/19 00:46:57;;;;;;;8.43;4.65;;;;;;;;;;5109136;28;20031;-59
2024/02/19 00:49:23;;;;;;;7.10;4.63;;;;;;;;;;5101033;28;20039;-59
2024/02/19 00:51:49;;;;;;;7.53;3.90;;;;;;;;;;5093114;28;20027;-58
2024/02/19 00:54:15;;;;;;;6.88;4.13;;;;;;;;;;5100525;28;20036;-56
2024/02/19 00:56:41;;;;;;;11.52;4.80;;;;;;;;;;5092330;28;20114;-57
2024/02/19 00:59:07;;;;;;;6.90;4.38;;;;;;;;;;5100356;28;20076;-56
2024/02/19 01:01:33;;;;;;;6.00;4.00;;;;;;;;;;5108043;28;20028;-55
2024/02/19 01:03:59;;;;;;;6.15;3.92;;;;;;;;;;5098678;28;20027;-56
2024/02/19 01:06:25;;;;;;;6.15;3.83;;;;;;;;;;5106276;28;20547;-57
2024/02/19 01:08:51;;;;;;;6.30;3.35;;;;;;;;;;5093483;28;20023;-57
2024/02/19 01:11:17;;;;;;;6.20;3.95;;;;;;;;;;5102285;28;20105;-56
2024/02/19 01:13:44;;;;;;;5.10;3.53;;;;;;;;;;5091929;28;20035;-56
2024/02/19 01:16:10;;;;;;;6.85;4.00;;;;;;;;;;5098158;28;20043;-56
2024/02/19 01:18:36;;;;;;;8.30;4.28;;;;;;;;;;5100379;28;20035;-56
2024/02/19 01:21:02;;;;;;;5.90;3.45;;;;;;;;;;5099927;28;20023;-56
2024/02/19 01:23:28;;;;;;;7.65;3.97;;;;;;;;;;5093205;28;20038;-56
2024/02/19 01:25:55;;;;;;;6.85;3.75;;;;;;;;;;5095661;28;20028;-56
2024/02/19 01:28:21;;;;;;;7.63;3.53;;;;;;;;;;5091687;28;20032;-58
2024/02/19 01:30:47;;;;;;;6.72;3.47;;;;;;;;;;5092411;28;20032;-56
2024/02/19 01:33:13;;;;;;;6.75;3.53;;;;;;;;;;5091230;28;20015;-55
2024/02/19 01:35:39;;;;;;;7.72;3.63;;;;;;;;;;5098102;28;20491;-56
2024/02/19 01:38:05;;;;;;;5.15;3.35;;;;;;;;;;5094999;28;20545;-56
2024/02/19 01:40:31;;;;;;;6.43;3.65;;;;;;;;;;5107022;28;20028;-56
2024/02/19 01:43:03;;;;;;;7.32;3.38;;;;;;;;;;5093307;28;20240;-56
2024/02/19 01:45:29;;;;;;;5.35;3.55;;;;;;;;;;5101973;28;20031;-56
2024/02/19 01:47:56;;;;;;;6.75;3.42;;;;;;;;;;5107113;28;20028;-58
2024/02/19 01:50:26;;;;;;;4.10;3.13;;;;;;;;;;5081878;28;20541;-58
2024/02/19 01:52:53;;;;;;;5.38;3.00;;;;;;;;;;5087519;28;20043;-58
2024/02/19 01:55:20;;;;;;;4.88;3.35;;;;;;;;;;5102832;28;20024;-58
2024/02/19 01:57:46;;;;;;;3.88;2.80;;;;;;;;;;5108580;28;20023;-59
2024/02/19 02:00:13;;;;;;;5.90;3.25;;;;;;;;;;5100464;28;20541;-58
2024/02/19 02:02:39;;;;;;;4.63;2.70;;;;;;;;;;5103934;28;20031;-59
2024/02/19 02:05:06;;;;;;;5.47;3.03;;;;;;;;;;5092813;28;20024;-59
2024/02/19 02:07:32;;;;;;;4.20;2.85;;;;;;;;;;5093924;28;20036;-58
2024/02/19 02:10:00;;;;;;;4.90;3.00;;;;;;;;;;5094514;28;20024;-60
2024/02/19 02:12:26;;;;;;;3.67;2.75;;;;;;;;;;5105742;28;20039;-58
2024/02/19 02:14:52;;;;;;;4.03;2.92;;;;;;;;;;5105085;28;20036;-57
2024/02/19 02:17:18;;;;;;;4.50;2.47;;;;;;;;;;5108332;28;20668;-59
2024/02/19 02:19:44;;;;;;;5.10;3.33;;;;;;;;;;5106639;28;20035;-59
2024/02/19 02:22:11;;;;;;;3.60;2.47;;;;;;;;;;5100794;28;20032;-59
2024/02/19 02:24:38;;;;;;;5.68;3.40;;;;;;;;;;5103097;28;20161;-59
2024/02/19 02:27:04;;;;;;;7.47;3.25;;;;;;;;;;5103231;28;20023;-58
2024/02/19 02:29:30;;;;;;;4.40;2.83;;;;;;;;;;5106150;28;20028;-59
2024/02/19 02:31:56;;;;;;;5.78;3.00;;;;;;;;;;5097423;28;20115;-59
2024/02/19 02:34:25;;;;;;;3.95;2.55;;;;;;;;;;5099536;28;20387;-58
2024/02/19 02:36:51;;;;;;;4.22;2.55;;;;;;;;;;5104226;28;20442;-59
2024/02/19 02:39:17;;;;;;;6.57;2.80;;;;;;;;;;5096184;28;20110;-57
2024/02/19 02:41:43;;;;;;;5.43;2.53;;;;;;;;;;5105077;28;20449;-59
2024/02/19 02:44:10;;;;;;;5.40;3.55;;;;;;;;;;5107219;28;20039;-59
2024/02/19 02:46:36;;;;;;;4.70;3.17;;;;;;;;;;5109367;28;20474;-59
2024/02/19 02:49:02;;;;;;;4.18;2.83;;;;;;;;;;5103995;28;20199;-59
2024/02/19 02:51:28;;;;;;;4.28;2.97;;;;;;;;;;5108277;28;20571;-58
2024/02/19 02:53:54;;;;;;;5.68;2.40;;;;;;;;;;5112049;28;20027;-58
2024/02/19 02:56:20;;;;;;;4.15;2.97;;;;;;;;;;5107156;28;20032;-59
2024/02/19 02:58:47;;;;;;;4.97;2.70;;;;;;;;;;5104973;28;21239;-58
2024/02/19 03:01:17;;;;;;;4.05;2.70;;;;;;;;;;5089670;28;20061;-57
2024/02/19 03:03:43;;;;;;;5.00;2.78;;;;;;;;;;5093933;28;21625;-58
2024/02/19 03:06:10;;;;;;;3.60;2.40;;;;;;;;;;5101008;28;20433;-58
2024/02/19 03:08:36;;;;;;;4.50;2.80;;;;;;;;;;5108176;28;20039;-58
2024/02/19 03:11:03;;;;;;;3.25;2.10;;;;;;;;;;5093501;28;20028;-59
2024/02/19 03:13:30;;;;;;;3.60;2.30;;;;;;;;;;5099637;28;20554;-59
2024/02/19 03:15:56;;;;;;;4.15;2.35;;;;;;;;;;5112389;28;20023;-59
2024/02/19 03:18:22;;;;;;;2.75;2.00;;;;;;;;;;5081565;28;20020;-58
2024/02/19 03:20:49;;;;;;;4.57;2.42;;;;;;;;;;5096600;28;20026;-58
2024/02/19 03:23:15;;;;;;;3.65;2.17;;;;;;;;;;5074168;28;20066;-58
2024/02/19 03:25:41;;;;;;;2.83;2.10;;;;;;;;;;5109068;28;20483;-58
2024/02/19 03:28:07;;;;;;;3.58;2.35;;;;;;;;;;5106242;28;20478;-58
2024/02/19 03:30:34;;;;;;;2.72;2.00;;;;;;;;;;5107123;28;20459;-59
2024/02/19 03:33:00;;;;;;;4.15;2.40;;;;;;;;;;5107205;28;20471;-58
2024/02/19 03:35:26;;;;;;;3.20;2.10;;;;;;;;;;5106524;28;20054;-58
2024/02/19 03:37:52;;;;;;;3.20;2.05;;;;;;;;;;5098109;28;20551;-58
2024/02/19 03:40:18;;;;;;;3.60;2.30;;;;;;;;;;5103979;28;20043;-58
2024/02/19 03:42:44;;;;;;;4.10;1.73;;;;;;;;;;5107357;28;20043;-58
2024/02/19 03:45:10;;;;;;;2.10;1.63;;;;;;;;;;5104676;28;20467;-59
2024/02/19 03:47:36;;;;;;;2.40;1.40;;;;;;;;;;5103752;28;20077;-59
2024/02/19 03:50:03;;;;;;;3.40;1.90;;;;;;;;;;5098874;28;20503;-59
2024/02/19 03:52:29;;;;;;;2.40;1.10;;;;;;;;;;5098661;28;20111;-58
2024/02/19 03:54:55;;;;;;;3.10;1.70;;;;;;;;;;5103898;28;20056;-59
2024/02/19 03:57:22;;;;;;;2.55;1.50;;;;;;;;;;5106059;28;20478;-58
2024/02/19 03:59:48;;;;;;;2.90;1.90;;;;;;;;;;5107386;28;20130;-59
2024/02/19 04:02:14;;;;;;;2.20;1.33;;;;;;;;;;5103425;28;20031;-59
2024/02/19 04:04:40;;;;;;;2.33;1.48;;;;;;;;;;5104202;28;20020;-59
2024/02/19 04:07:06;;;;;;;2.08;1.45;;;;;;;;;;5095163;28;20066;-59
2024/02/19 04:09:34;;;;;;;2.55;1.52;;;;;;;;;;5091984;28;20024;-59
2024/02/19 04:12:00;;;;;;;3.13;1.50;;;;;;;;;;5104617;28;20042;-59
2024/02/19 04:14:26;;;;;;;1.40;1.10;;;;;;;;;;5094461;28;20028;-58
2024/02/19 04:16:52;;;;;;;1.70;1.20;;;;;;;;;;5110987;28;20082;-59
2024/02/19 04:19:18;;;;;;;1.15;0.95;;;;;;;;;;5109301;28;20375;-59
2024/02/19 04:21:45;;;;;;;1.27;0.82;;;;;;;;;;5104302;28;20056;-58
2024/02/19 04:24:12;;;;;;;3.08;0.88;;;;;;;;;;5098813;28;20044;-59
2024/02/19 04:26:38;;;;;;;1.20;1.05;;;;;;;;;;5103545;28;20024;-59
2024/02/19 04:29:04;;;;;;;0.88;0.80;;;;;;;;;;5083497;28;20131;-58
2024/02/19 04:31:30;;;;;;;2.15;0.95;;;;;;;;;;5105877;28;20467;-58
2024/02/19 04:33:56;;;;;;;1.08;0.98;;;;;;;;;;5101382;28;20070;-59
2024/02/19 04:36:22;;;;;;;1.17;0.98;;;;;;;;;;5090777;28;20387;-58
2024/02/19 04:38:48;;;;;;;1.48;1.05;;;;;;;;;;5096297;28;20475;-58
2024/02/19 04:41:14;;;;;;;1.88;1.25;;;;;;;;;;5090795;28;20055;-58
2024/02/19 04:43:40;;;;;;;1.90;1.42;;;;;;;;;;5095408;28;20027;-58
2024/02/19 04:46:06;;;;;;;1.70;1.30;;;;;;;;;;5092738;28;20025;-58
2024/02/19 04:48:35;;;;;;;1.60;1.17;;;;;;;;;;5092777;28;20048;-57
2024/02/19 04:51:01;;;;;;;2.22;1.35;;;;;;;;;;5092161;28;20028;-58
2024/02/19 04:53:27;;;;;;;1.90;1.42;;;;;;;;;;5092119;28;20054;-58
2024/02/19 04:55:53;;;;;;;2.53;1.30;;;;;;;;;;5092350;28;20430;-58
2024/02/19 04:58:19;;;;;;;2.05;1.40;;;;;;;;;;5099327;28;20054;-58
2024/02/19 05:00:45;;;;;;;1.80;1.38;;;;;;;;;;5094149;28;20028;-58
2024/02/19 05:03:12;;;;;;;2.55;1.80;;;;;;;;;;5075323;28;20036;-58
2024/02/19 05:05:38;;;;;;;1.70;1.50;;;;;;;;;;5091298;28;21937;-58
2024/02/19 05:08:04;;;;;;;2.38;1.58;;;;;;;;;;5094969;28;20531;-58
2024/02/19 05:10:30;;;;;;;4.72;2.15;;;;;;;;;;5093089;28;20101;-58
2024/02/19 05:12:57;;;;;;;1.77;1.42;;;;;;;;;;5092086;28;20016;-58
2024/02/19 05:15:23;;;;;;;3.50;1.73;;;;;;;;;;5100851;28;20028;-57
2024/02/19 05:17:49;;;;;;;2.33;1.73;;;;;;;;;;5087569;28;20047;-58
2024/02/19 05:20:15;;;;;;;2.85;1.48;;;;;;;;;;5087196;28;20381;-58
2024/02/19 05:22:41;;;;;;;2.17;1.35;;;;;;;;;;5094908;28;20038;-58
2024/02/19 05:25:07;;;;;;;1.83;1.60;;;;;;;;;;5089728;28;20086;-58
2024/02/19 05:27:33;;;;;;;1.52;1.20;;;;;;;;;;5098242;28;20019;-58
2024/02/19 05:29:59;;;;;;;2.28;1.40;;;;;;;;;;5096473;28;20074;-58
2024/02/19 05:32:25;;;;;;;1.40;1.10;;;;;;;;;;5093757;28;20498;-56
2024/02/19 05:34:52;;;;;;;1.65;1.33;;;;;;;;;;5087209;28;20035;-58
2024/02/19 05:37:18;;;;;;;1.63;1.15;;;;;;;;;;5093954;28;20028;-58
2024/02/19 05:39:44;;;;;;;1.60;1.13;;;;;;;;;;5089520;28;20051;-59
2024/02/19 05:42:09;;;;;;;1.48;1.15;;;;;;;;;;5088915;28;20062;-58
2024/02/19 05:44:36;;;;;;;1.42;0.88;;;;;;;;;;5091786;28;20035;-57
2024/02/19 05:47:02;;;;;;;1.17;0.60;;;;;;;;;;5089690;28;20016;-59
2024/02/19 05:49:28;;;;;;;0.73;0.63;;;;;;;;;;5089433;28;20110;-59
2024/02/19 05:51:54;;;;;;;1.90;0.73;;;;;;;;;;5089064;28;20388;-58
2024/02/19 05:54:24;;;;;;;1.70;1.02;;;;;;;;;;5093732;28;20035;-59
2024/02/19 05:56:50;;;;;;;0.47;0.38;;;;;;;;;;5100274;28;20038;-59
2024/02/19 05:59:16;;;;;;;2.25;0.50;;;;;;;;;;5100553;28;20086;-58
2024/02/19 06:01:42;;;;;;;0.68;0.40;;;;;;;;;;5095816;28;20039;-59
2024/02/19 06:04:08;;;;;;;0.57;0.40;;;;;;;;;;5097965;28;20072;-59
2024/02/19 06:06:34;;;;;;;0.95;0.47;;;;;;;;;;5091701;28;20043;-59
2024/02/19 06:09:02;;;;;;;1.13;0.50;;;;;;;;;;5092000;28;20547;-57
2024/02/19 06:11:28;;;;;;;0.55;0.47;;;;;;;;;;5089966;28;20539;-58
2024/02/19 06:13:54;;;;;;;0.88;0.30;;;;;;;;;;5098509;28;20029;-59
2024/02/19 06:16:23;;;;;;;1.08;0.52;;;;;;;;;;5093828;28;20506;-59
2024/02/19 06:18:49;;;;;;;0.77;0.40;;;;;;;;;;5088934;28;20032;-58
2024/02/19 06:21:15;;;;;;;0.45;0.30;;;;;;;;;;5096317;28;20073;-57
2024/02/19 06:23:42;;;;;;;0.35;0.35;;;;;;;;;;5091590;28;20441;-58
2024/02/19 06:26:12;;;;;;;0.32;0.30;;;;;;;;;;5099659;28;20028;-59
2024/02/19 06:28:39;;;;;;;0.73;0.32;;;;;;;;;;5089307;28;20074;-59
2024/02/19 06:31:05;;;;;;;0.50;0.40;;;;;;;;;;5100798;28;20539;-59
2024/02/19 06:33:31;;;;;;;1.83;0.32;;;;;;;;;;5093861;28;20021;-59
2024/02/19 06:35:57;;;;;;;0.60;0.45;;;;;;;;;;5087930;28;20506;-58
2024/02/19 06:38:23;;;;;;;1.13;0.47;;;;;;;;;;5089152;28;20058;-59
2024/02/19 06:40:49;;;;;;;1.08;0.60;;;;;;;;;;5092687;28;20036;-59
2024/02/19 06:43:15;;;;;;;1.38;0.50;;;;;;;;;;5094049;28;20108;-58
2024/02/19 06:45:41;;;;;;;2.10;0.60;;;;;;;;;;5089843;28;20024;-59
2024/02/19 06:48:07;;;;;;;2.38;0.47;;;;;;;;;;5090510;28;20043;-58
2024/02/19 06:50:33;;;;;;;0.43;0.40;;;;;;;;;;5095098;28;20335;-58
2024/02/19 06:52:59;;;;;;;1.17;0.80;;;;;;;;;;5097811;28;20016;-59
2024/02/19 06:55:25;;;;;;;1.50;0.73;;;;;;;;;;5100543;28;20426;-58
2024/02/19 06:57:51;;;;;;;2.85;0.70;;;;;;;;;;5096170;28;20036;-60
2024/02/19 07:00:17;;;;;;;0.93;0.80;;;;;;;;;;5093193;28;20036;-58
2024/02/19 07:02:43;;;;;;;1.08;0.77;;;;;;;;;;5093367;28;20396;-58
2024/02/19 07:05:10;;;;;;;1.00;0.85;;;;;;;;;;5092700;28;20039;-58
2024/02/19 07:07:37;;;;;;;0.73;0.65;;;;;;;;;;5097268;28;20028;-58
2024/02/19 07:10:03;;;;;;;3.10;0.80;;;;;;;;;;5083529;28;20356;-58
2024/02/19 07:12:29;;;;;;;1.02;0.93;;;;;;;;;;5093189;28;20028;-58
2024/02/19 07:14:55;;;;;;;1.48;0.90;;;;;;;;;;5096202;28;20205;-58
2024/02/19 07:17:22;;;;;;;1.73;1.00;;;;;;;;;;5093291;28;20055;-59
2024/02/19 07:19:48;;;;;;;1.23;0.90;;;;;;;;;;5093395;28;20035;-59
2024/02/19 07:22:14;;;;;;;1.10;0.80;;;;;;;;;;5094502;28;20028;-58
2024/02/19 07:24:40;;;;;;;1.70;0.80;;;;;;;;;;5088575;28;20498;-58
2024/02/19 07:27:06;;;;;;;1.05;0.52;;;;;;;;;;5092076;28;20372;-57
2024/02/19 07:29:32;;;;;;;0.88;0.63;;;;;;;;;;5093633;28;20397;-59
2024/02/19 07:31:58;;;;;;;0.73;0.73;;;;;;;;;;5094067;28;20230;-59
2024/02/19 07:34:24;;;;;;;0.52;0.50;;;;;;;;;;5092337;28;20043;-58
2024/02/19 07:36:50;;;;;;;1.65;0.73;;;;;;;;;;5098224;28;20099;-58
2024/02/19 07:39:17;;;;;;;0.52;0.50;;;;;;;;;;5093015;28;20028;-59
2024/02/19 07:41:43;;;;;;;0.73;0.45;;;;;;;;;;5092064;28;20081;-59
2024/02/19 07:44:09;;;;;;;0.50;0.50;;;;;;;;;;5091938;28;20036;-58
2024/02/19 07:46:35;;;;;;;1.33;0.40;;;;;;;;;;5092467;28;20020;-58
2024/02/19 07:49:01;;;;;;;0.55;0.35;;;;;;;;;;5092797;28;20032;-59
2024/02/19 07:51:27;;;;;;;1.23;0.50;;;;;;;;;;5092606;28;20161;-58
2024/02/19 07:53:53;;;;;;;2.25;0.30;;;;;;;;;;5092467;28;20016;-59
2024/02/19 07:56:19;;;;;;;0.57;0.50;;;;;;;;;;5091996;28;20020;-55
2024/02/19 07:58:45;;;;;;;0.82;0.50;;;;;;;;;;5091336;28;20032;-58
2024/02/19 08:01:11;;;;;;;0.50;0.40;;;;;;;;;;5099035;28;20079;-58
2024/02/19 08:03:37;;;;;;;4.97;0.50;;;;;;;;;;5093707;28;20031;-59
2024/02/19 08:06:03;;;;;;;1.70;0.30;;;;;;;;;;5095993;28;20094;-59
2024/02/19 08:08:29;;;;;;;0.90;0.45;;;;;;;;;;5094172;28;20119;-58
2024/02/19 08:10:55;;;;;;;0.35;0.35;;;;;;;;;;5087668;28;20050;-59
2024/02/19 08:13:21;;;;;;;0.40;0.40;;;;;;;;;;5102343;28;20498;-58
2024/02/19 08:15:48;;;;;;;2.60;0.57;;;;;;;;;;5092061;28;20031;-56
2024/02/19 08:18:14;;;;;;;1.17;0.35;;;;;;;;;;5096184;28;20023;-59
2024/02/19 08:20:40;;;;;;;0.40;0.40;;;;;;;;;;5092034;28;20032;-58
2024/02/19 08:23:06;;;;;;;0.60;0.40;;;;;;;;;;5091852;28;20375;-58
2024/02/19 08:25:32;;;;;;;1.23;0.50;;;;;;;;;;5091770;28;20111;-58
2024/02/19 08:27:59;;;;;;;0.60;0.47;;;;;;;;;;5108390;28;20023;-58
2024/02/19 08:30:25;;;;;;;2.15;0.60;;;;;;;;;;5108279;28;20102;-58
2024/02/19 08:32:51;;;;;;;1.23;0.60;;;;;;;;;;5100938;28;20099;-60
2024/02/19 08:35:17;;;;;;;0.90;0.55;;;;;;;;;;5099410;28;20036;-58
2024/02/19 08:37:43;;;;;;;1.98;1.55;;;;;;;;;;5091925;28;20118;-58
2024/02/19 08:40:09;;;;;;;0.80;0.50;;;;;;;;;;5087825;28;20502;-58
2024/02/19 08:42:35;;;;;;;1.35;0.60;;;;;;;;;;5093298;28;20032;-58
2024/02/19 08:45:03;;;;;;;1.70;0.82;;;;;;;;;;5103758;28;20035;-58
2024/02/19 08:47:29;;;;;;;1.13;0.68;;;;;;;;;;5101530;28;20078;-58
2024/02/19 08:49:55;;;;;;;1.05;0.57;;;;;;;;;;5094757;28;20119;-59
2024/02/19 08:52:21;;;;;;;2.17;0.55;;;;;;;;;;5100155;28;20495;-59
2024/02/19 08:54:47;;;;;;;1.85;0.55;;;;;;;;;;5096418;28;20035;-58
2024/02/19 08:57:14;;;;;;;1.48;0.65;;;;;;;;;;5097482;28;20036;-59
2024/02/19 08:59:45;;;;;;;1.73;0.68;;;;;;;;;;5098397;28;20159;-58
2024/02/19 09:02:11;;;;;;;1.70;0.80;;;;;;;;;;5092704;28;20498;-59
2024/02/19 09:04:37;;;;;;;1.38;0.60;;;;;;;;;;5090055;28;20058;-58
2024/02/19 09:07:04;;;;;;;2.08;0.80;;;;;;;;;;5106161;28;20024;-58
2024/02/19 09:09:30;;;;;;;1.30;0.70;;;;;;;;;;5091606;28;20031;-58
2024/02/19 09:11:56;;;;;;;1.10;0.73;;;;;;;;;;5096170;28;20046;-58
2024/02/19 09:14:22;;;;;;;0.85;0.60;;;;;;;;;;5090826;28;20023;-58
2024/02/19 09:16:48;;;;;;;2.28;0.90;;;;;;;;;;5099092;28;20093;-58
2024/02/19 09:19:15;;;;;;;3.25;0.90;;;;;;;;;;5105569;28;20031;-58
2024/02/19 09:21:43;;;;;;;2.08;1.00;;;;;;;;;;5098049;28;20077;-58
2024/02/19 09:24:11;;;;;;;2.00;1.17;;;;;;;;;;5093345;28;20032;-58
2024/02/19 09:26:37;;;;;;;1.38;1.02;;;;;;;;;;5095528;28;20024;-57
2024/02/19 09:29:03;;;;;;;3.35;1.10;;;;;;;;;;5097644;28;20111;-58
2024/02/19 09:31:29;;;;;;;1.30;0.90;;;;;;;;;;5097420;28;20063;-57
2024/02/19 09:33:55;;;;;;;1.30;0.90;;;;;;;;;;5090553;28;20085;-58
2024/02/19 09:36:21;;;;;;;2.88;1.00;;;;;;;;;;5090249;28;20024;-57
2024/02/19 09:38:48;;;;;;;2.53;1.13;;;;;;;;;;5090828;28;20044;-58
2024/02/19 09:41:14;;;;;;;6.13;1.70;;;;;;;;;;5092788;28;20150;-58
2024/02/19 09:43:40;;;;;;;2.63;0.95;;;;;;;;;;5096080;28;20457;-58
2024/02/19 09:46:10;;;;;;;5.18;1.00;;;;;;;;;;5078962;28;20032;-59
2024/02/19 09:48:36;;;;;;;0.95;0.80;;;;;;;;;;5090900;28;20403;-58
2024/02/19 09:51:04;;;;;;;3.30;1.27;;;;;;;;;;5090500;28;20046;-58
2024/02/19 09:53:33;;;;;;;1.13;0.68;;;;;;;;;;5090486;28;20047;-58
2024/02/19 09:55:59;;;;;;;1.58;0.90;;;;;;;;;;5091079;28;20080;-58
2024/02/19 09:58:26;;;;;;;1.65;0.90;;;;;;;;;;5099463;28;20063;-58
2024/02/19 10:00:52;;;;;;;1.50;0.70;;;;;;;;;;5103034;28;20122;-58
2024/02/19 10:03:19;;;;;;;3.35;0.80;;;;;;;;;;5092844;28;20111;-58
2024/02/19 10:05:45;;;;;;;1.15;0.52;;;;;;;;;;5094992;28;20027;-58
2024/02/19 10:08:14;;;;;;;2.47;0.60;;;;;;;;;;5090638;28;20028;-58
2024/02/19 10:10:41;;;;;;;1.48;0.60;;;;;;;;;;5087478;28;20065;-59
2024/02/19 10:13:12;;;;;;;5.25;0.80;;;;;;;;;;5090626;28;20031;-59
2024/02/19 10:15:38;;;;;;;1.05;0.47;;;;;;;;;;5090659;28;20161;-58
2024/02/19 10:18:18;;;;;;;0.90;0.50;;;;;;;;;;5090350;28;20050;-58
2024/02/19 10:20:46;;;;;;;2.67;0.55;;;;;;;;;;5091634;28;20031;-58
2024/02/19 10:23:11;;;;;;;1.10;0.50;;;;;;;;;;5094424;28;20111;-58
2024/02/19 10:25:38;;;;;;;1.08;0.60;;;;;;;;;;5100014;28;20053;-58
2024/02/19 10:28:04;;;;;;;1.75;0.50;;;;;;;;;;5101111;28;20117;-57
2024/02/19 10:30:30;;;;;;;2.13;0.30;;;;;;;;;;5083654;28;20026;-58
2024/02/19 10:32:56;;;;;;;2.38;0.60;;;;;;;;;;5106681;28;20549;-58
2024/02/19 10:35:23;;;;;;;1.20;0.20;;;;;;;;;;5094706;28;20368;-58
2024/02/19 10:37:49;;;;;;;1.55;0.30;;;;;;;;;;5092947;28;20507;-58
2024/02/19 10:40:18;;;;;;;0.30;0.30;;;;;;;;;;5094831;28;20035;-58
2024/02/19 10:42:44;;;;;;;0.32;0.32;;;;;;;;;;5099371;28;20491;-58
2024/02/19 10:45:10;;;;;;;0.40;0.20;;;;;;;;;;5093171;28;20137;-58
2024/02/19 10:47:38;;;;;;;1.60;0.50;;;;;;;;;;5107791;28;20024;-58
2024/02/19 10:50:05;;;;;;;0.63;0.30;;;;;;;;;;5092813;28;20043;-58
2024/02/19 10:52:33;;;;;;;0.80;0.20;;;;;;;;;;5105449;28;20080;-58
2024/02/19 10:55:00;;;;;;;0.68;0.20;;;;;;;;;;5096107;28;20024;-58
2024/02/19 10:57:30;;;;;;;0.55;0.40;;;;;;;;;;5096431;28;20039;-58
2024/02/19 11:00:11;;;;;;;0.30;0.30;;;;;;;;;;5081607;28;20035;-58
2024/02/19 11:02:38;;;;;;;0.10;0.10;;;;;;;;;;5092642;28;20118;-58
2024/02/19 11:05:07;;;;;;;1.95;0.40;;;;;;;;;;5093747;28;20471;-58
2024/02/19 11:07:34;;;;;;;2.03;0.55;;;;;;;;;;5094078;28;20062;-58
2024/02/19 11:10:04;;;;;;;0.40;0.30;;;;;;;;;;5091956;28;20032;-58
2024/02/19 11:12:30;;;;;;;0.40;0.40;;;;;;;;;;5104134;28;20027;-58
2024/02/19 11:14:56;;;;;;;1.20;0.50;;;;;;;;;;5085876;28;20683;-58
2024/02/19 11:17:23;;;;;;;1.40;0.52;;;;;;;;;;5097082;28;20043;-58
2024/02/19 11:19:50;;;;;;;0.70;0.70;;;;;;;;;;5093104;28;20040;-58
2024/02/19 11:22:24;;;;;;;1.05;0.70;;;;;;;;;;5098887;28;20115;-58
2024/02/19 11:24:50;;;;;;;3.42;0.88;;;;;;;;;;5086281;28;20032;-59
2024/02/19 11:27:16;;;;;;;1.33;0.80;;;;;;;;;;5096996;28;20050;-56
2024/02/19 11:29:43;;;;;;;0.88;0.80;;;;;;;;;;5101693;28;20023;-56
2024/02/19 11:32:09;;;;;;;1.20;0.90;;;;;;;;;;5098383;28;20028;-56
2024/02/19 11:34:35;;;;;;;0.75;0.60;;;;;;;;;;5096743;28;20055;-56
2024/02/19 11:37:03;;;;;;;0.68;0.57;;;;;;;;;;5097282;28;20036;-57
2024/02/19 11:39:33;;;;;;;2.08;0.90;;;;;;;;;;5089263;28;20036;-55
2024/02/19 11:41:59;;;;;;;1.30;1.00;;;;;;;;;;5083041;28;20039;-57
2024/02/19 11:44:28;;;;;;;1.95;1.00;;;;;;;;;;5091639;28;20077;-55
2024/02/19 11:46:54;;;;;;;0.98;0.73;;;;;;;;;;5092939;28;20020;-57
2024/02/19 11:49:20;;;;;;;0.85;0.65;;;;;;;;;;5092730;28;20028;-56
2024/02/19 11:51:46;;;;;;;0.70;0.63;;;;;;;;;;5092751;28;20028;-55
2024/02/19 11:54:12;;;;;;;2.00;1.27;;;;;;;;;;5092193;28;20031;-55
2024/02/19 11:56:51;;;;;;;3.05;0.60;;;;;;;;;;5092684;28;20375;-56
2024/02/19 11:59:18;;;;;;;1.15;0.60;;;;;;;;;;5093213;28;20023;-56
2024/02/19 12:01:44;;;;;;;0.93;0.63;;;;;;;;;;5092651;28;20028;-56
2024/02/19 12:04:11;;;;;;;0.70;0.50;;;;;;;;;;5096454;28;20506;-56
2024/02/19 12:06:37;;;;;;;1.17;0.70;;;;;;;;;;5097611;28;20364;-57
2024/02/19 12:09:03;;;;;;;0.75;0.40;;;;;;;;;;5093975;28;20024;-56
2024/02/19 12:11:29;;;;;;;1.33;0.45;;;;;;;;;;5096908;28;20062;-56
2024/02/19 12:13:55;;;;;;;4.68;0.60;;;;;;;;;;5094899;28;20051;-58
2024/02/19 12:16:25;;;;;;;0.68;0.40;;;;;;;;;;5100216;28;20063;-56
2024/02/19 12:18:51;;;;;;;0.50;0.40;;;;;;;;;;5091822;28;20035;-56
2024/02/19 12:21:17;;;;;;;1.13;0.40;;;;;;;;;;5092210;28;20040;-57
2024/02/19 12:23:44;;;;;;;1.05;0.60;;;;;;;;;;5091599;28;20064;-56
2024/02/19 12:26:10;;;;;;;0.70;0.50;;;;;;;;;;5082576;28;20444;-57
2024/02/19 12:28:36;;;;;;;0.40;0.40;;;;;;;;;;5102869;28;20105;-56
2024/02/19 12:31:02;;;;;;;1.60;0.60;;;;;;;;;;5092176;28;20024;-56
2024/02/19 12:33:28;;;;;;;0.73;0.50;;;;;;;;;;5095088;28;20077;-56
2024/02/19 12:35:54;;;;;;;1.42;0.50;;;;;;;;;;5092800;28;20085;-56
2024/02/19 12:38:20;;;;;;;0.98;0.68;;;;;;;;;;5091238;28;20032;-58
2024/02/19 12:40:46;;;;;;;1.38;0.75;;;;;;;;;;5094410;28;20082;-59
2024/02/19 12:43:12;;;;;;;1.45;0.70;;;;;;;;;;5094323;28;20040;-59
2024/02/19 12:45:38;;;;;;;0.77;0.52;;;;;;;;;;5092092;28;20036;-59
2024/02/19 12:48:06;;;;;;;1.63;1.08;;;;;;;;;;5076058;28;20031;-59
2024/02/19 12:50:32;;;;;;;0.80;0.60;;;;;;;;;;5092471;28;20020;-59
2024/02/19 12:52:59;;;;;;;1.35;1.00;;;;;;;;;;5095229;28;20034;-59
2024/02/19 12:55:25;;;;;;;1.02;0.55;;;;;;;;;;5090840;28;20028;-59
2024/02/19 12:57:51;;;;;;;1.15;0.90;;;;;;;;;;5088907;28;20031;-59
2024/02/19 13:00:17;;;;;;;1.10;0.68;;;;;;;;;;5093883;28;20031;-59
2024/02/19 13:02:43;;;;;;;0.40;0.40;;;;;;;;;;5093970;28;20483;-58
2024/02/19 13:05:09;;;;;;;1.00;0.70;;;;;;;;;;5098909;28;20039;-59
2024/02/19 13:07:35;;;;;;;0.75;0.50;;;;;;;;;;5096511;28;20024;-59
2024/02/19 13:10:01;;;;;;;0.60;0.52;;;;;;;;;;5093891;28;20035;-59
2024/02/19 13:12:27;;;;;;;0.75;0.50;;;;;;;;;;5095988;28;20069;-59
2024/02/19 13:14:55;;;;;;;3.28;0.75;;;;;;;;;;5092191;28;20024;-59
2024/02/19 13:17:21;;;;;;;1.92;0.60;;;;;;;;;;5084360;28;20526;-59
2024/02/19 13:19:48;;;;;;;1.67;0.50;;;;;;;;;;5089264;28;20032;-59
2024/02/19 13:22:14;;;;;;;1.00;0.38;;;;;;;;;;5084407;28;20024;-59
2024/02/19 13:24:41;;;;;;;1.13;0.45;;;;;;;;;;5082550;28;20040;-59
2024/02/19 13:27:07;;;;;;;2.97;0.70;;;;;;;;;;5070472;28;20024;-59
2024/02/19 13:29:33;;;;;;;0.57;0.40;;;;;;;;;;5080826;28;20118;-58
2024/02/19 13:32:00;;;;;;;0.32;0.32;;;;;;;;;;5076574;28;20052;-59
2024/02/19 13:34:26;;;;;;;0.75;0.40;;;;;;;;;;5070337;28;20025;-59
2024/02/19 13:36:54;;;;;;;0.38;0.30;;;;;;;;;;5072390;28;20024;-58
2024/02/19 13:39:20;;;;;;;1.42;0.40;;;;;;;;;;5082741;28;20115;-59
2024/02/19 13:41:46;;;;;;;2.22;0.45;;;;;;;;;;5070908;28;20032;-59
2024/02/19 13:44:13;;;;;;;0.45;0.38;;;;;;;;;;5072617;28;20056;-58
2024/02/19 13:46:43;;;;;;;0.52;0.40;;;;;;;;;;5062094;28;20025;-56
2024/02/19 13:49:09;;;;;;;1.15;0.40;;;;;;;;;;5070819;28;20021;-57
2024/02/19 13:51:35;;;;;;;0.50;0.50;;;;;;;;;;5070484;28;20024;-57
2024/02/19 13:54:02;;;;;;;0.32;0.32;;;;;;;;;;5083959;28;20472;-56
2024/02/19 13:56:28;;;;;;;2.67;0.40;;;;;;;;;;5070921;28;20029;-57
2024/02/19 13:58:54;;;;;;;1.95;0.50;;;;;;;;;;5082699;28;20032;-57
2024/02/19 14:01:20;;;;;;;0.40;0.40;;;;;;;;;;5085877;28;20020;-57
2024/02/19 14:03:47;;;;;;;0.95;0.40;;;;;;;;;;5076139;28;20027;-56
2024/02/19 14:06:14;;;;;;;1.55;0.40;;;;;;;;;;5075119;28;20020;-57
2024/02/19 14:08:40;;;;;;;0.22;0.20;;;;;;;;;;5083097;28;20065;-57
2024/02/19 14:11:06;;;;;;;2.28;0.40;;;;;;;;;;5070304;28;20377;-56
2024/02/19 14:13:33;;;;;;;1.20;0.40;;;;;;;;;;5088058;28;20062;-57
2024/02/19 14:15:59;;;;;;;2.15;0.40;;;;;;;;;;5087022;28;20040;-56
2024/02/19 14:18:25;;;;;;;1.00;0.35;;;;;;;;;;5094694;28;20031;-57
2024/02/19 14:20:51;;;;;;;0.60;0.40;;;;;;;;;;5094411;28;20081;-57
2024/02/19 14:23:17;;;;;;;0.30;0.20;;;;;;;;;;5085327;28;20042;-57
2024/02/19 14:25:43;;;;;;;1.38;0.40;;;;;;;;;;5077190;28;20442;-57
2024/02/19 14:28:10;;;;;;;0.30;0.28;;;;;;;;;;5075021;28;20032;-56
2024/02/19 14:30:36;;;;;;;1.95;0.35;;;;;;;;;;5073767;28;20021;-57
2024/02/19 14:33:02;;;;;;;2.15;0.40;;;;;;;;;;5077359;28;20102;-57
2024/02/19 14:35:28;;;;;;;1.60;0.40;;;;;;;;;;5077855;28;20028;-58
2024/02/19 14:37:54;;;;;;;0.85;0.43;;;;;;;;;;5085132;28;20109;-56